createdAt,value
2022-10-23T00:00:39.476Z,67.96
2022-10-23T00:13:28.897Z,67.82
2022-10-23T00:16:08.946Z,67.83
2022-10-23T00:18:42.086Z,67.62
2022-10-23T00:21:18.949Z,67.94
2022-10-23T00:23:53.246Z,67.79
2022-10-23T00:26:27.644Z,68.01
2022-10-23T00:29:02.993Z,67.78
2022-10-23T00:41:50.971Z,67.68
2022-10-23T00:45:18.966Z,67.87
2022-10-23T00:47:53.685Z,67.67
2022-10-23T00:50:30.924Z,67.74
2022-10-23T00:53:05.321Z,67.75
2022-10-23T00:55:39.940Z,67.79
2022-10-23T01:09:01.927Z,67.90
2022-10-23T01:11:46.830Z,68.00
2022-10-23T01:14:37.958Z,68.13
2022-10-23T01:17:23.286Z,67.96
2022-10-23T01:20:20.940Z,68.13
2022-10-23T01:33:50.936Z,68.01
2022-10-23T01:36:31.805Z,68.06
2022-10-23T01:39:17.929Z,67.87
2022-10-23T01:41:57.237Z,67.88
2022-10-23T01:44:46.971Z,67.99
2022-10-23T01:47:27.049Z,68.01
2022-10-23T01:50:17.941Z,68.14
2022-10-23T02:00:27.902Z,68.22
2022-10-23T02:03:08.927Z,68.20
2022-10-23T02:05:44.837Z,68.09
2022-10-23T02:08:18.930Z,68.14
2022-10-23T02:11:02.771Z,68.03
2022-10-23T02:13:51.925Z,68.00
2022-10-23T02:27:20.958Z,68.02
2022-10-23T02:30:05.554Z,68.13
2022-10-23T02:32:53.985Z,68.18
2022-10-23T02:35:27.374Z,67.97
2022-10-23T02:38:29.937Z,67.95
2022-10-23T02:55:18.885Z,68.00
2022-10-23T02:58:09.941Z,67.95
2022-10-23T03:00:51.952Z,67.95
2022-10-23T03:03:38.950Z,68.01
2022-10-23T03:06:13.930Z,68.07
2022-10-23T03:09:00.934Z,68.07
2022-10-23T03:22:11.949Z,68.02
2022-10-23T03:24:45.353Z,67.80
2022-10-23T03:27:18.992Z,68.06
2022-10-23T03:29:54.502Z,67.97
2022-10-23T03:32:27.924Z,67.97
2022-10-23T03:35:01.016Z,67.91
2022-10-23T03:47:59.880Z,67.92
2022-10-23T03:50:41.934Z,68.05
2022-10-23T03:53:15.010Z,67.97
2022-10-23T03:55:41.622Z,68.11
2022-10-23T03:58:23.934Z,67.92
2022-10-23T04:00:57.123Z,67.86
2022-10-23T04:14:17.881Z,67.64
2022-10-23T04:16:57.933Z,67.64
2022-10-23T04:19:31.225Z,67.55
2022-10-23T04:22:04.930Z,67.73
2022-10-23T04:24:38.925Z,67.48
2022-10-23T04:27:11.910Z,67.65
2022-10-23T04:29:47.045Z,67.72
2022-10-23T04:42:35.890Z,67.85
2022-10-23T04:45:17.915Z,67.83
2022-10-23T04:47:51.126Z,67.93
2022-10-23T04:50:17.764Z,67.87
2022-10-23T04:53:17.894Z,67.91
2022-10-23T05:07:46.085Z,67.96
2022-10-23T05:10:38.540Z,68.13
2022-10-23T05:13:20.949Z,67.97
2022-10-23T05:15:54.484Z,68.21
2022-10-23T05:18:33.909Z,68.12
2022-10-23T05:21:14.268Z,67.94
2022-10-23T05:34:33.891Z,67.81
2022-10-23T05:37:19.914Z,67.70
2022-10-23T05:40:03.389Z,67.78
2022-10-23T05:42:47.454Z,67.78
2022-10-23T05:45:30.469Z,67.71
2022-10-23T05:48:35.001Z,67.66
2022-10-23T05:51:21.423Z,67.75
2022-10-23T06:01:14.968Z,67.72
2022-10-23T06:04:00.440Z,67.79
2022-10-23T06:06:57.904Z,67.78
2022-10-23T06:09:31.770Z,67.86
2022-10-23T06:12:08.540Z,67.85
2022-10-23T06:14:45.279Z,67.84
2022-10-23T06:28:02.886Z,68.12
2022-10-23T06:30:44.907Z,68.16
2022-10-23T06:33:18.462Z,68.34
2022-10-23T06:35:51.914Z,68.26
2022-10-23T06:38:25.333Z,68.45
2022-10-23T06:41:02.903Z,68.41
2022-10-23T06:54:46.910Z,68.53
2022-10-23T06:57:24.525Z,68.71
2022-10-23T07:00:04.893Z,68.69
2022-10-23T07:02:51.014Z,68.72
2022-10-23T07:05:30.904Z,68.92
2022-10-23T07:08:04.825Z,68.77
2022-10-23T07:10:46.915Z,68.95
2022-10-23T07:23:55.937Z,69.64
2022-10-23T07:26:25.075Z,69.67
2022-10-23T07:29:04.922Z,69.65
2022-10-23T07:31:37.950Z,69.86
2022-10-23T07:34:49.895Z,69.89
2022-10-23T07:48:19.593Z,69.90
2022-10-23T07:51:02.538Z,69.89
2022-10-23T07:53:48.881Z,70.04
2022-10-23T07:56:47.425Z,70.06
2022-10-23T07:59:35.831Z,69.87
2022-10-23T08:16:17.877Z,69.44
2022-10-23T08:19:11.904Z,69.50
2022-10-23T08:21:46.967Z,69.78
2022-10-23T08:24:20.894Z,69.63
2022-10-23T08:26:54.051Z,69.58
2022-10-23T08:29:29.909Z,69.49
2022-10-23T08:42:46.032Z,70.11
2022-10-23T08:45:30.558Z,70.45
2022-10-23T08:48:33.982Z,70.18
2022-10-23T08:51:35.365Z,70.38
2022-10-23T08:54:22.923Z,70.20
2022-10-23T09:11:09.867Z,70.37
2022-10-23T09:14:35.927Z,70.48
2022-10-23T09:17:23.424Z,70.44
2022-10-23T09:22:54.733Z,70.48
2022-10-23T09:25:32.885Z,70.41
2022-10-23T09:35:31.864Z,70.37
2022-10-23T09:38:11.878Z,70.20
2022-10-23T09:40:47.142Z,70.00
2022-10-23T09:43:24.918Z,69.91
2022-10-23T09:46:05.455Z,69.71
2022-10-23T09:48:46.986Z,69.77
2022-10-23T09:51:22.338Z,69.83
2022-10-23T10:04:10.853Z,69.22
2022-10-23T10:07:03.914Z,69.06
2022-10-23T10:09:36.992Z,68.89
2022-10-23T10:12:47.918Z,68.93
2022-10-23T10:15:32.045Z,68.68
2022-10-23T10:28:59.886Z,67.93
2022-10-23T10:31:58.902Z,68.11
2022-10-23T10:34:48.666Z,68.16
2022-10-23T10:37:49.364Z,68.01
2022-10-23T10:40:32.773Z,67.97
2022-10-23T10:43:35.881Z,67.72
2022-10-23T10:46:26.946Z,67.51
2022-10-23T10:56:07.886Z,66.94
2022-10-23T10:58:48.092Z,66.72
2022-10-23T11:01:36.997Z,66.73
2022-10-23T11:04:23.438Z,66.39
2022-10-23T11:07:05.904Z,66.37
2022-10-23T11:09:41.568Z,66.27
2022-10-23T11:22:42.082Z,65.64
2022-10-23T11:29:08.762Z,65.61
2022-10-23T11:32:10.902Z,65.09
2022-10-23T11:35:16.359Z,64.97
2022-10-23T11:48:56.847Z,65.03
2022-10-23T11:51:41.003Z,64.92
2022-10-23T11:54:23.641Z,64.54
2022-10-23T11:57:17.947Z,64.90
2022-10-23T11:59:54.587Z,64.59
2022-10-23T12:02:39.920Z,64.40
2022-10-23T12:05:32.425Z,64.46
2022-10-23T12:15:47.879Z,63.73
2022-10-23T12:18:22.918Z,63.88
2022-10-23T12:21:00.877Z,63.91
2022-10-23T12:24:02.343Z,63.83
2022-10-23T12:27:12.882Z,64.01
2022-10-23T12:30:16.375Z,64.13
2022-10-23T12:43:31.867Z,64.17
2022-10-23T12:46:33.870Z,64.10
2022-10-23T12:49:16.058Z,63.96
2022-10-23T12:52:02.944Z,63.98
2022-10-23T12:54:39.740Z,63.81
2022-10-23T13:11:01.880Z,63.88
2022-10-23T13:13:41.119Z,64.01
2022-10-23T13:16:22.889Z,63.98
2022-10-23T13:18:55.954Z,63.79
2022-10-23T13:21:32.924Z,63.76
2022-10-23T13:24:21.400Z,63.52
2022-10-23T13:37:32.884Z,63.58
2022-10-23T13:40:35.897Z,63.35
2022-10-23T13:43:15.912Z,63.37
2022-10-23T13:45:55.957Z,63.21
2022-10-23T13:48:29.445Z,63.25
2022-10-23T13:51:17.870Z,63.53
2022-10-23T14:04:30.871Z,64.26
2022-10-23T14:07:03.921Z,64.15
2022-10-23T14:09:30.453Z,64.34
2022-10-23T14:12:10.884Z,64.15
2022-10-23T14:14:43.837Z,64.06
2022-10-23T14:31:10.867Z,63.92
2022-10-23T14:33:45.861Z,64.01
2022-10-23T14:39:12.985Z,63.88
2022-10-23T14:41:45.898Z,63.71
2022-10-23T14:44:18.954Z,63.69
2022-10-23T14:57:08.847Z,60.58
2022-10-23T14:59:49.329Z,60.07
2022-10-23T15:02:21.928Z,59.76
2022-10-23T15:04:48.505Z,59.67
2022-10-23T15:07:28.882Z,60.22
2022-10-23T15:10:10.489Z,60.76
2022-10-23T15:23:09.843Z,62.05
2022-10-23T15:25:49.890Z,62.76
2022-10-23T15:28:23.056Z,62.91
2022-10-23T15:30:49.654Z,63.09
2022-10-23T15:33:30.919Z,63.35
2022-10-23T15:36:04.662Z,63.50
2022-10-23T15:52:19.901Z,64.33
2022-10-23T15:54:58.402Z,64.71
2022-10-23T15:57:38.905Z,64.59
2022-10-23T16:00:18.137Z,64.60
2022-10-23T16:03:01.126Z,64.86
2022-10-23T16:05:35.316Z,64.84
2022-10-23T16:18:25.854Z,65.20
2022-10-23T16:21:05.870Z,65.05
2022-10-23T16:23:38.917Z,65.11
2022-10-23T16:26:05.815Z,65.36
2022-10-23T16:28:47.299Z,65.26
2022-10-23T16:31:24.208Z,65.49
2022-10-23T16:44:13.848Z,65.71
2022-10-23T16:47:19.879Z,65.76
2022-10-23T16:49:52.949Z,65.84
2022-10-23T16:52:19.517Z,65.89
2022-10-23T16:54:59.853Z,65.89
2022-10-23T17:11:39.848Z,66.54
2022-10-23T17:14:22.871Z,66.42
2022-10-23T17:16:59.406Z,66.59
2022-10-23T17:19:45.066Z,66.38
2022-10-23T17:22:19.389Z,66.63
2022-10-23T17:24:53.861Z,66.61
2022-10-23T17:38:04.890Z,66.49
2022-10-23T17:40:39.055Z,66.68
2022-10-23T17:43:11.895Z,66.76
2022-10-23T17:45:45.027Z,66.77
2022-10-23T17:48:18.877Z,66.72
2022-10-23T17:51:02.417Z,66.94
2022-10-23T18:04:00.841Z,66.81
2022-10-23T18:06:47.853Z,66.83
2022-10-23T18:09:22.384Z,66.75
2022-10-23T18:11:58.117Z,66.71
2022-10-23T18:14:33.296Z,66.76
2022-10-23T18:17:14.878Z,66.88
2022-10-23T18:19:51.659Z,66.63
2022-10-23T18:32:46.024Z,66.70
2022-10-23T18:35:20.891Z,66.87
2022-10-23T18:37:53.995Z,66.55
2022-10-23T18:40:23.136Z,66.54
2022-10-23T18:43:11.622Z,66.91
2022-10-23T18:45:47.961Z,66.76
2022-10-23T18:58:36.842Z,66.80
2022-10-23T19:01:16.956Z,66.84
2022-10-23T19:03:50.238Z,66.88
2022-10-23T19:06:23.898Z,66.77
2022-10-23T19:08:57.652Z,66.79
2022-10-23T19:11:33.874Z,66.81
2022-10-23T19:24:50.853Z,66.49
2022-10-23T19:27:25.373Z,66.39
2022-10-23T19:30:00.866Z,66.44
2022-10-23T19:32:34.174Z,66.42
2022-10-23T19:35:00.725Z,66.33
2022-10-23T19:37:41.004Z,66.25
2022-10-23T19:40:16.613Z,66.19
2022-10-23T19:53:03.840Z,66.04
2022-10-23T19:55:38.879Z,66.02
2022-10-23T19:58:11.952Z,66.05
2022-10-23T20:00:38.614Z,66.11
2022-10-23T20:03:18.872Z,65.86
2022-10-23T20:05:51.974Z,65.87
2022-10-23T20:18:40.841Z,65.72
2022-10-23T20:21:22.579Z,65.78
2022-10-23T20:24:04.944Z,65.51
2022-10-23T20:26:46.852Z,65.74
2022-10-23T20:29:20.957Z,65.46
2022-10-23T20:45:24.880Z,65.20
2022-10-23T20:47:57.941Z,65.13
2022-10-23T20:50:24.504Z,64.94
2022-10-23T20:53:11.877Z,65.04
2022-10-23T20:55:45.017Z,64.91
2022-10-23T20:58:11.561Z,64.76
2022-10-23T21:00:53.876Z,64.86
2022-10-23T21:11:15.839Z,64.78
2022-10-23T21:13:55.870Z,64.98
2022-10-23T21:16:35.249Z,64.97
2022-10-23T21:19:17.865Z,64.72
2022-10-23T21:21:50.914Z,64.81
2022-10-23T21:24:17.594Z,64.61
2022-10-23T21:39:56.854Z,64.29
2022-10-23T21:45:29.870Z,64.40
2022-10-23T21:48:03.353Z,64.28
2022-10-23T21:50:36.895Z,64.24
2022-10-23T22:04:29.882Z,64.43
2022-10-23T22:07:04.449Z,64.44
2022-10-23T22:09:39.870Z,64.30
2022-10-23T22:12:12.932Z,64.44
2022-10-23T22:14:46.836Z,64.83
2022-10-23T22:17:19.921Z,65.42
2022-10-23T22:19:54.846Z,65.58
2022-10-23T22:33:05.136Z,66.26
2022-10-23T22:35:39.939Z,66.23
2022-10-23T22:38:12.849Z,66.32
2022-10-23T22:40:46.825Z,66.57
2022-10-23T22:43:19.859Z,66.68
2022-10-23T22:45:52.917Z,66.80
2022-10-23T22:58:42.822Z,66.90
2022-10-23T23:01:29.895Z,67.03
2022-10-23T23:04:13.957Z,67.12
2022-10-23T23:07:03.871Z,66.97
2022-10-23T23:09:38.958Z,67.18
2022-10-23T23:25:55.858Z,67.57
2022-10-23T23:28:28.901Z,67.58
2022-10-23T23:31:10.837Z,67.61
2022-10-23T23:33:45.327Z,67.43
2022-10-23T23:36:25.559Z,67.60
2022-10-23T23:38:59.563Z,67.61
2022-10-23T23:41:34.886Z,67.57
2022-10-23T23:51:30.804Z,67.72
2022-10-23T23:54:10.868Z,67.57
2022-10-23T23:56:46.872Z,67.28
2022-10-23T23:59:25.849Z,67.09
